Time;durP1;ratioP1;P1;durP2;ratioP2;P2;SDS_P1;SDS_P2;PMS_P1;PMS_P2;Temp;Humidity;BMP_temperature;BMP_pressure;BME280_temperature;BME280_humidity;BME280_pressure;Samples;Min_cycle;Max_cycle;Signal;HPM_P1;HPM_P2
2022/09/06 00:01:32;;;;;;;2.17;0.83;;;;;;;20.25;56.71;99690.28;6044650;23;20184;-89
2022/09/06 00:04:00;;;;;;;1.40;0.60;;;;;;;20.20;56.89;99690.59;6045263;23;20580;-89
2022/09/06 00:06:25;;;;;;;3.70;0.90;;;;;;;20.16;56.64;99691.84;6069620;23;20224;-89
2022/09/06 00:08:51;;;;;;;1.50;0.50;;;;;;;20.09;56.97;99689.81;6069607;23;20197;-89
2022/09/06 00:11:17;;;;;;;1.23;0.83;;;;;;;19.93;57.82;99687.56;6069456;23;20153;-89
2022/09/06 00:13:43;;;;;;;1.23;0.67;;;;;;;19.93;57.66;99695.56;6069742;23;20149;-89
2022/09/06 00:16:19;;;;;;;0.97;0.50;;;;;;;19.90;57.78;99685.16;6044475;23;20603;-89
2022/09/06 00:18:45;;;;;;;0.60;0.40;;;;;;;19.98;57.43;99690.69;6069869;23;20227;-88
2022/09/06 00:21:17;;;;;;;1.03;0.77;;;;;;;19.80;57.97;99684.22;6069462;23;20149;-88
2022/09/06 00:23:43;;;;;;;3.23;0.70;;;;;;;19.74;58.53;99684.72;6070135;23;20212;-89
2022/09/06 00:26:09;;;;;;;2.10;0.63;;;;;;;19.70;58.50;99683.28;6069433;23;20157;-89
2022/09/06 00:28:34;;;;;;;1.63;0.60;;;;;;;19.69;58.87;99672.75;6069383;23;20223;-89
2022/09/06 00:31:13;;;;;;;2.83;0.90;;;;;;;19.63;59.24;99668.78;6069416;23;20155;-89
2022/09/06 00:33:38;;;;;;;1.10;0.50;;;;;;;19.62;59.21;99675.09;6070078;23;20141;-89
2022/09/06 00:36:04;;;;;;;2.03;0.77;;;;;;;19.52;59.42;99680.28;6069714;23;20161;-89
2022/09/06 00:38:30;;;;;;;4.73;1.03;;;;;;;19.52;59.40;99682.13;6044507;23;20159;-89
2022/09/06 00:40:56;;;;;;;1.57;0.60;;;;;;;19.63;58.74;99679.44;6069320;23;20153;-89
2022/09/06 00:43:21;;;;;;;1.47;0.83;;;;;;;19.64;58.82;99681.13;6044493;23;20156;-89
2022/09/06 00:45:47;;;;;;;1.17;0.60;;;;;;;19.59;58.91;99680.66;6069893;23;20221;-89
2022/09/06 00:48:14;;;;;;;1.50;0.67;;;;;;;19.55;59.20;99684.50;6069516;23;20220;-89
2022/09/06 00:50:39;;;;;;;1.20;0.70;;;;;;;19.45;59.35;99675.59;6069556;23;20152;-88
2022/09/06 00:53:05;;;;;;;0.80;0.50;;;;;;;19.35;59.89;99674.59;6069042;23;20180;-89
2022/09/06 00:55:30;;;;;;;4.50;1.00;;;;;;;19.37;59.91;99678.88;6069136;23;20507;-89
2022/09/06 00:57:56;;;;;;;4.00;0.77;;;;;;;19.29;59.93;99672.44;6044243;23;20192;-88
2022/09/06 01:00:21;;;;;;;3.13;0.87;;;;;;;19.27;59.82;99675.22;6068946;23;20190;-89
2022/09/06 01:02:48;;;;;;;2.00;0.83;;;;;;;19.27;59.43;99679.69;6069187;23;20157;-89
2022/09/06 01:05:14;;;;;;;1.23;0.60;;;;;;;19.33;58.82;99674.75;6069116;23;20150;-89
2022/09/06 01:08:04;;;;;;;0.80;0.47;;;;;;;19.27;58.82;99675.22;6069073;23;20164;-89
2022/09/06 01:10:37;;;;;;;1.50;0.80;;;;;;;19.23;58.34;99673.78;6069405;23;20152;-89
2022/09/06 01:13:22;;;;;;;1.13;0.60;;;;;;;19.19;58.14;99668.81;6044046;23;20477;-89
2022/09/06 01:16:06;;;;;;;1.40;0.60;;;;;;;19.19;58.08;99666.16;6069584;23;20282;-89
2022/09/06 01:18:58;;;;;;;1.80;0.73;;;;;;;19.15;57.99;99667.38;6069300;23;20164;-89
2022/09/06 01:21:46;;;;;;;1.17;0.70;;;;;;;19.06;58.02;99665.44;6069689;23;20137;-88
2022/09/06 01:24:30;;;;;;;1.83;0.70;;;;;;;19.06;57.93;99673.41;6068902;23;20153;-89
2022/09/06 01:27:29;;;;;;;1.53;0.60;;;;;;;19.02;57.98;99671.00;6069587;23;20208;-89
2022/09/06 01:30:08;;;;;;;1.33;0.70;;;;;;;18.91;58.09;99665.69;6069206;23;20142;-89
2022/09/06 01:32:44;;;;;;;3.37;0.87;;;;;;;18.80;58.92;99684.28;6069191;23;20137;-89
2022/09/06 01:35:18;;;;;;;2.13;0.90;;;;;;;18.74;59.07;99679.44;6069404;23;20199;-89
2022/09/06 01:37:44;;;;;;;1.60;0.77;;;;;;;18.69;58.82;99678.09;6068824;23;20140;-89
2022/09/06 01:40:10;;;;;;;1.90;0.67;;;;;;;18.69;58.70;99680.75;6068749;23;20573;-89
2022/09/06 01:42:40;;;;;;;2.10;0.90;;;;;;;18.73;58.83;99680.41;6068790;23;20160;-89
2022/09/06 01:45:14;;;;;;;2.80;1.00;;;;;;;18.73;58.97;99675.09;6043703;23;20172;-90
2022/09/06 01:47:57;;;;;;;3.90;0.60;;;;;;;18.68;58.81;99677.28;6043701;23;20150;-89
2022/09/06 01:50:48;;;;;;;0.83;0.53;;;;;;;18.67;58.80;99670.25;6043691;23;20554;-88
2022/09/06 01:53:51;;;;;;;2.80;0.70;;;;;;;18.59;58.66;99667.34;6043414;23;20169;-88
2022/09/06 01:56:41;;;;;;;2.53;0.70;;;;;;;18.61;58.92;99656.59;6069302;23;20194;-89
2022/09/06 01:59:24;;;;;;;1.83;0.63;;;;;;;18.51;59.26;99653.81;6068614;23;20730;-88
2022/09/06 02:02:32;;;;;;;1.97;0.70;;;;;;;18.40;59.59;99656.41;6068917;23;20149;-89
2022/09/06 02:05:07;;;;;;;1.47;0.80;;;;;;;18.44;59.68;99655.22;5926287;24;20161;-89
2022/09/06 02:07:35;;;;;;;4.70;0.57;;;;;;;18.43;59.36;99654.38;6030208;23;20240;-89
2022/09/06 02:10:09;;;;;;;1.13;0.70;;;;;;;18.41;59.47;99645.69;6068425;23;20156;-88
2022/09/06 02:12:39;;;;;;;1.80;0.83;;;;;;;18.39;59.36;99654.72;6068178;23;20149;-89
2022/09/06 02:15:19;;;;;;;2.13;0.90;;;;;;;18.28;60.05;99644.94;6043396;23;20173;-89
2022/09/06 02:18:03;;;;;;;1.63;0.70;;;;;;;18.21;60.36;99651.63;6068782;23;20165;-89
2022/09/06 02:20:32;;;;;;;1.77;0.70;;;;;;;18.20;60.52;99649.13;6068787;23;20198;-89
2022/09/06 02:23:02;;;;;;;1.40;0.70;;;;;;;18.21;60.38;99650.81;6068404;23;20183;-89
2022/09/06 02:25:37;;;;;;;2.53;0.77;;;;;;;18.29;60.09;99648.44;6068381;23;20208;-89
2022/09/06 02:28:04;;;;;;;0.97;0.60;;;;;;;18.34;59.72;99646.28;6068716;23;20216;-89
2022/09/06 02:30:32;;;;;;;2.47;0.97;;;;;;;18.29;59.93;99637.81;6068681;23;20162;-89
2022/09/06 02:33:03;;;;;;;0.87;0.50;;;;;;;18.21;60.06;99648.16;6068344;23;20208;-89
2022/09/06 02:35:29;;;;;;;0.77;0.57;;;;;;;18.10;60.41;99654.28;6043147;23;20173;-89
2022/09/06 02:37:55;;;;;;;1.30;0.70;;;;;;;18.03;60.28;99655.69;6068320;23;20593;-89
2022/09/06 02:40:21;;;;;;;5.40;0.90;;;;;;;18.10;60.00;99664.03;6068281;23;20153;-89
2022/09/06 02:42:47;;;;;;;2.13;0.97;;;;;;;18.09;60.00;99665.00;6068271;23;20232;-89
2022/09/06 02:45:12;;;;;;;1.47;0.60;;;;;;;18.06;59.98;99657.25;6068916;23;20184;-89
2022/09/06 02:47:38;;;;;;;3.50;1.13;;;;;;;18.04;59.87;99654.72;6068281;23;20158;-89
2022/09/06 02:50:03;;;;;;;1.80;0.60;;;;;;;18.02;59.95;99655.81;6068258;23;20480;-89
2022/09/06 02:52:29;;;;;;;2.00;0.87;;;;;;;18.00;60.10;99663.03;6068049;23;20196;-89
2022/09/06 02:54:55;;;;;;;1.97;0.87;;;;;;;17.94;60.40;99661.69;6043107;23;20251;-89
2022/09/06 02:57:21;;;;;;;3.90;0.60;;;;;;;17.78;60.80;99654.03;6068598;23;20243;-89
2022/09/06 02:59:47;;;;;;;3.00;1.10;;;;;;;17.75;61.21;99661.34;6068282;23;20157;-88
2022/09/06 03:02:14;;;;;;;2.20;0.80;;;;;;;17.74;60.88;99671.09;6068395;23;20159;-89
2022/09/06 03:04:40;;;;;;;4.73;1.07;;;;;;;17.74;60.99;99657.84;6068494;23;20153;-89
2022/09/06 03:07:05;;;;;;;2.00;1.00;;;;;;;17.84;60.59;99657.19;6068400;23;20157;-89
2022/09/06 03:09:31;;;;;;;1.53;0.57;;;;;;;17.89;60.37;99665.63;6068829;23;20161;-89
2022/09/06 03:11:56;;;;;;;1.80;0.70;;;;;;;17.86;60.24;99661.41;6068486;23;20153;-89
2022/09/06 03:14:22;;;;;;;1.00;0.60;;;;;;;17.88;60.41;99663.94;6068055;23;20181;-89
2022/09/06 03:16:47;;;;;;;2.87;1.10;;;;;;;17.87;60.13;99652.50;6043140;23;20566;-89
2022/09/06 03:19:13;;;;;;;1.50;0.70;;;;;;;17.83;59.76;99660.78;6068099;23;20173;-89
2022/09/06 03:21:38;;;;;;;1.83;1.00;;;;;;;17.81;59.67;99658.25;6068150;23;20483;-88
2022/09/06 03:24:04;;;;;;;1.73;0.83;;;;;;;17.86;59.42;99660.56;6043335;23;20539;-89
2022/09/06 03:26:29;;;;;;;4.00;1.10;;;;;;;17.77;59.66;99659.41;6070345;23;20153;-89
2022/09/06 03:28:55;;;;;;;2.77;0.90;;;;;;;17.71;60.18;99658.06;6070005;23;20152;-88
2022/09/06 03:31:21;;;;;;;1.10;0.50;;;;;;;17.73;59.83;99661.47;6069951;23;20178;-89
2022/09/06 03:33:46;;;;;;;1.43;0.80;;;;;;;17.69;60.19;99659.13;6069800;23;20159;-89
2022/09/06 03:36:12;;;;;;;2.13;1.20;;;;;;;17.64;60.45;99656.81;6045215;23;20239;-89
2022/09/06 03:38:39;;;;;;;2.47;0.93;;;;;;;17.65;60.70;99658.53;6044831;23;20157;-89
2022/09/06 03:41:05;;;;;;;1.20;0.67;;;;;;;17.60;60.81;99655.38;6070221;23;20228;-89
2022/09/06 03:43:31;;;;;;;2.60;0.97;;;;;;;17.61;61.02;99657.06;6069868;23;20624;-88
2022/09/06 03:45:56;;;;;;;2.77;0.80;;;;;;;17.52;61.27;99662.16;6069854;23;20179;-88
2022/09/06 03:48:25;;;;;;;2.73;0.80;;;;;;;17.51;60.93;99669.25;6069829;23;20152;-88
2022/09/06 03:50:53;;;;;;;2.97;1.20;;;;;;;17.49;61.28;99673.81;6069779;23;20192;-88
2022/09/06 03:53:19;;;;;;;1.93;0.83;;;;;;;17.49;61.09;99662.38;6069534;23;20208;-88
2022/09/06 03:55:50;;;;;;;1.83;1.00;;;;;;;17.46;61.39;99674.03;6070027;23;20177;-88
2022/09/06 03:58:17;;;;;;;4.03;0.83;;;;;;;17.54;60.91;99663.75;6069704;23;20153;-89
2022/09/06 04:00:43;;;;;;;2.20;0.77;;;;;;;17.54;61.09;99671.72;6044640;23;20153;-88
2022/09/06 04:03:09;;;;;;;1.57;0.90;;;;;;;17.60;60.85;99670.44;6070332;23;20224;-88
2022/09/06 04:05:35;;;;;;;2.73;1.10;;;;;;;17.55;61.27;99673.44;6069612;23;20149;-89
2022/09/06 04:08:01;;;;;;;1.87;0.97;;;;;;;17.50;61.76;99678.19;6069672;23;20595;-89
2022/09/06 04:10:26;;;;;;;3.80;0.93;;;;;;;17.57;61.11;99675.94;6044475;23;20556;-89
2022/09/06 04:12:52;;;;;;;2.30;1.23;;;;;;;17.61;60.53;99672.94;6069583;23;20153;-88
2022/09/06 04:15:17;;;;;;;4.40;1.57;;;;;;;17.63;60.42;99680.81;6069490;23;20176;-88
2022/09/06 04:17:44;;;;;;;1.77;0.90;;;;;;;17.62;60.47;99674.66;6069459;23;20161;-88
2022/09/06 04:20:11;;;;;;;2.90;1.03;;;;;;;17.50;61.18;99685.28;6044435;23;20196;-89
2022/09/06 04:22:36;;;;;;;1.33;0.70;;;;;;;17.47;61.69;99675.75;6069787;23;20149;-89
2022/09/06 04:25:03;;;;;;;1.63;0.90;;;;;;;17.37;62.24;99681.81;6069479;23;20149;-89
2022/09/06 04:27:28;;;;;;;2.73;0.93;;;;;;;17.36;62.50;99685.41;6069390;23;20153;-89
2022/09/06 04:29:55;;;;;;;3.13;1.00;;;;;;;17.37;62.40;99687.97;6070060;23;20252;-89
2022/09/06 04:32:21;;;;;;;2.20;0.80;;;;;;;17.49;62.21;99694.19;6069431;23;20159;-88
2022/09/06 04:34:46;;;;;;;1.93;0.90;;;;;;;17.57;62.04;99698.00;6044130;23;20516;-88
2022/09/06 04:37:13;;;;;;;2.27;1.00;;;;;;;17.56;62.09;99696.31;6069994;23;20149;-88
2022/09/06 04:39:39;;;;;;;2.43;1.07;;;;;;;17.51;62.94;99695.75;6069680;23;20224;-89
2022/09/06 04:42:04;;;;;;;2.47;1.00;;;;;;;17.60;63.20;99702.25;6044245;23;20161;-89
2022/09/06 04:44:30;;;;;;;2.17;0.90;;;;;;;17.71;62.88;99695.19;6069950;23;20146;-89
2022/09/06 04:47:05;;;;;;;3.73;1.37;;;;;;;17.83;62.60;99695.25;6069263;23;20157;-89
2022/09/06 04:49:30;;;;;;;2.47;0.87;;;;;;;17.91;62.85;99700.84;6069899;23;20159;-88
2022/09/06 04:51:56;;;;;;;3.53;1.20;;;;;;;17.99;62.80;99694.03;6069227;23;20224;-88
2022/09/06 04:54:21;;;;;;;2.90;1.70;;;;;;;18.08;63.52;99697.81;6068910;23;20254;-88
2022/09/06 04:56:47;;;;;;;2.90;1.00;;;;;;;18.14;64.05;99692.03;6044080;23;20226;-89
2022/09/06 04:59:12;;;;;;;8.43;1.10;;;;;;;18.25;64.15;99697.38;6069155;23;20154;-88
2022/09/06 05:01:38;;;;;;;2.47;0.97;;;;;;;18.29;64.62;99696.22;6069460;23;20483;-88
2022/09/06 05:04:03;;;;;;;2.37;1.33;;;;;;;18.43;64.72;99699.50;6069081;23;20149;-89
2022/09/06 05:06:29;;;;;;;3.23;1.97;;;;;;;18.46;63.96;99687.78;6069380;23;20579;-88
2022/09/06 05:08:54;;;;;;;10.73;4.80;;;;;;;18.56;63.88;99686.16;6044096;23;20205;-88
2022/09/06 05:11:19;;;;;;;11.33;4.13;;;;;;;18.69;63.78;99684.25;6043949;23;20578;-89
2022/09/06 05:13:46;;;;;;;6.07;2.50;;;;;;;18.85;63.86;99683.91;6069682;23;20154;-88
2022/09/06 05:16:11;;;;;;;5.50;2.90;;;;;;;18.92;63.81;99691.28;6068927;23;20180;-89
2022/09/06 05:18:37;;;;;;;4.77;1.80;;;;;;;18.90;63.72;99681.75;6043974;23;20163;-89
2022/09/06 05:21:03;;;;;;;3.33;1.37;;;;;;;18.97;64.19;99686.44;6043882;23;20157;-89
2022/09/06 05:23:28;;;;;;;3.60;1.63;;;;;;;19.16;63.76;99682.34;6068916;23;20154;-89
2022/09/06 05:25:54;;;;;;;4.37;1.57;;;;;;;19.23;63.94;99683.56;6069568;23;20224;-89
2022/09/06 05:28:20;;;;;;;2.10;1.10;;;;;;;19.36;64.14;99681.63;6068903;23;20163;-88
2022/09/06 05:30:46;;;;;;;4.63;1.40;;;;;;;19.54;64.30;99681.03;6069097;23;20164;-89
2022/09/06 05:33:13;;;;;;;1.83;0.90;;;;;;;19.68;64.18;99682.56;6068803;23;20171;-89
2022/09/06 05:35:39;;;;;;;4.43;1.00;;;;;;;19.85;63.91;99686.50;6043706;23;20542;-89
2022/09/06 05:38:04;;;;;;;1.30;0.93;;;;;;;19.88;63.83;99686.25;6068744;23;20172;-89
2022/09/06 05:40:30;;;;;;;2.70;1.40;;;;;;;19.97;63.76;99680.16;6068794;23;20530;-89
2022/09/06 05:42:55;;;;;;;2.37;0.70;;;;;;;20.13;63.95;99683.25;6068765;23;20580;-89
2022/09/06 05:45:21;;;;;;;1.80;1.10;;;;;;;20.32;63.73;99675.47;6068719;23;20152;-89
2022/09/06 05:47:47;;;;;;;2.40;1.27;;;;;;;20.45;63.50;99672.59;6068436;23;20582;-89
2022/09/06 05:50:12;;;;;;;2.43;1.20;;;;;;;20.59;63.79;99667.81;6043587;23;20160;-89
2022/09/06 05:52:38;;;;;;;2.43;1.20;;;;;;;20.80;63.32;99673.13;6043612;23;20285;-89
2022/09/06 05:55:04;;;;;;;2.47;1.17;;;;;;;20.99;63.02;99665.19;6069238;23;20236;-89
2022/09/06 05:57:30;;;;;;;2.37;0.90;;;;;;;21.12;62.91;99671.19;6069157;23;20224;-89
2022/09/06 05:59:55;;;;;;;2.40;0.90;;;;;;;21.33;62.45;99663.97;6068941;23;20188;-89
2022/09/06 06:02:22;;;;;;;4.17;0.90;;;;;;;21.49;62.37;99668.78;6043536;23;20645;-89
2022/09/06 06:04:48;;;;;;;1.90;0.90;;;;;;;21.62;61.68;99660.56;6068595;23;20153;-89
2022/09/06 06:07:14;;;;;;;2.63;0.90;;;;;;;21.83;60.90;99666.59;6068602;23;20176;-89
2022/09/06 06:09:40;;;;;;;1.97;1.00;;;;;;;22.00;59.88;99672.16;6068858;23;20149;-90
2022/09/06 06:12:06;;;;;;;2.67;1.00;;;;;;;22.13;59.22;99669.19;6068457;23;20153;-90
2022/09/06 06:14:32;;;;;;;2.80;1.07;;;;;;;22.25;58.43;99667.22;6069090;23;20208;-90
2022/09/06 06:16:57;;;;;;;2.00;0.77;;;;;;;22.41;58.39;99660.31;6068511;23;20578;-90
2022/09/06 06:19:25;;;;;;;1.10;0.47;;;;;;;22.54;57.32;99660.84;6068803;23;20154;-90
2022/09/06 06:21:52;;;;;;;2.30;0.90;;;;;;;22.55;56.89;99665.22;6068315;23;20150;-90
2022/09/06 06:24:17;;;;;;;3.13;1.10;;;;;;;22.68;56.91;99658.75;6043637;23;20513;-89
2022/09/06 06:26:43;;;;;;;2.20;0.87;;;;;;;22.70;57.89;99662.97;6068367;23;20160;-89
2022/09/06 06:29:09;;;;;;;2.17;0.90;;;;;;;23.12;56.14;99658.03;6068408;23;20199;-89
2022/09/06 06:31:36;;;;;;;2.20;0.80;;;;;;;23.48;54.35;99657.19;6068692;23;20153;-88
2022/09/06 06:34:02;;;;;;;4.33;1.20;;;;;;;23.79;53.42;99650.50;6068245;23;20188;-88
2022/09/06 06:36:32;;;;;;;3.80;1.00;;;;;;;23.99;52.22;99656.56;6068670;23;20593;-88
2022/09/06 06:38:58;;;;;;;1.47;0.60;;;;;;;24.34;51.66;99651.19;6068654;23;20574;-89
2022/09/06 06:41:29;;;;;;;4.17;1.03;;;;;;;24.68;50.11;99645.09;6068331;23;20149;-90
2022/09/06 06:43:57;;;;;;;1.97;0.80;;;;;;;24.98;48.65;99642.78;6068752;23;20148;-89
2022/09/06 06:46:25;;;;;;;1.53;0.87;;;;;;;25.19;48.83;99645.06;6068694;23;20149;-90
2022/09/06 06:48:53;;;;;;;2.30;0.90;;;;;;;25.43;48.26;99641.63;6068961;23;20236;-89
2022/09/06 06:52:27;;;;;;;;;;;;;;;;;;;;;
2022/09/06 06:55:26;;;;;;;;;;;;;;;;;;;;;
2022/09/06 06:57:54;;;;;;;1.20;0.60;;;;;;;26.49;44.97;99651.59;6069347;23;20220;-90
2022/09/06 07:00:22;;;;;;;3.13;0.80;;;;;;;26.98;43.68;99638.91;6044509;23;20161;-90
2022/09/06 07:12:01;;;;;;;2.33;0.82;;;;;;;27.85;41.69;99644.94;5899839;24;20689;-89
2022/09/06 07:14:57;;;;;;;3.05;0.85;;;;;;;28.03;41.09;99650.06;5978458;24;20221;-91
2022/09/06 07:17:38;;;;;;;;;;;;;;;;;;;;;
2022/09/06 07:20:08;;;;;;;1.95;0.63;;;;;;;28.26;40.56;99656.28;6071254;23;20212;-91
2022/09/06 07:22:33;;;;;;;3.15;0.80;;;;;;;28.34;40.29;99645.44;6070205;23;20149;-90
2022/09/06 07:24:59;;;;;;;5.05;0.82;;;;;;;28.19;40.05;99644.56;6070173;23;20146;-90
2022/09/06 07:31:41;;;;;;;;;;;;;;;;;;;;;
2022/09/06 07:34:25;;;;;;;1.67;0.75;;;;;;;28.42;41.10;99644.50;5959942;23;20239;-91
2022/09/06 07:36:54;;;;;;;3.33;1.00;;;;;;;28.22;39.65;99644.19;5987395;23;20190;-90
2022/09/06 07:39:22;;;;;;;2.30;0.80;;;;;;;27.89;40.96;99643.53;6011373;23;20261;-91
2022/09/06 07:41:50;;;;;;;2.40;0.70;;;;;;;28.27;41.40;99640.94;6026665;23;20201;-90
2022/09/06 07:44:57;;;;;;;;;;;;;;;;;;;;;
2022/09/06 07:48:12;;;;;;;1.75;0.75;;;;;;;28.68;40.01;99636.03;6065170;23;20228;-90
2022/09/06 07:51:24;;;;;;;2.75;0.82;;;;;;;29.10;38.19;99642.50;6065430;23;20523;-92
2022/09/06 07:53:59;;;;;;;1.88;0.85;;;;;;;29.06;38.86;99634.97;6044803;23;20172;-91
2022/09/06 07:56:24;;;;;;;2.22;1.02;;;;;;;28.98;37.70;99635.88;6045267;23;20172;-90
2022/09/06 07:58:51;;;;;;;1.70;0.70;;;;;;;29.17;37.98;99635.31;6044576;23;20157;-90
2022/09/06 08:01:37;;;;;;;1.85;0.68;;;;;;;29.27;38.20;99639.63;6044804;23;20157;-90
2022/09/06 08:04:07;;;;;;;1.95;0.73;;;;;;;29.37;37.61;99634.78;6045820;23;20149;-91
2022/09/06 08:07:01;;;;;;;1.35;0.60;;;;;;;29.57;36.55;99630.44;6044648;23;20586;-91
2022/09/06 08:10:15;;;;;;;2.90;0.70;;;;;;;29.45;36.87;99626.56;6044126;23;20220;-91
2022/09/06 08:12:51;;;;;;;;;;;;;;;;;;;;;
2022/09/06 08:15:23;;;;;;;3.33;1.83;;;;;;;29.90;35.98;99634.38;6069676;23;20277;-90
2022/09/06 08:18:18;;;;;;;3.60;1.00;;;;;;;30.01;34.77;99627.63;6069904;23;20149;-91
2022/09/06 08:20:44;;;;;;;1.80;0.82;;;;;;;30.09;35.23;99619.38;6045233;23;20165;-91
2022/09/06 08:23:26;;;;;;;1.50;0.70;;;;;;;30.30;34.92;99622.91;6044505;23;20157;-91
2022/09/06 08:25:58;;;;;;;4.05;0.88;;;;;;;30.38;34.79;99624.66;6044562;23;20275;-91
2022/09/06 08:28:32;;;;;;;1.92;0.90;;;;;;;30.33;34.87;99627.09;6044505;23;20161;-91
2022/09/06 08:31:13;;;;;;;1.58;0.70;;;;;;;30.25;34.54;99619.13;6044530;23;20491;-90
2022/09/06 08:33:48;;;;;;;1.85;0.57;;;;;;;30.24;33.99;99617.47;6044474;23;20172;-90
2022/09/06 08:36:14;;;;;;;7.57;0.82;;;;;;;30.19;34.42;99614.50;6045001;23;20180;-91
2022/09/06 08:38:44;;;;;;;3.03;1.30;;;;;;;30.27;33.74;99608.94;6044412;23;20232;-90
2022/09/06 08:41:13;;;;;;;2.53;1.00;;;;;;;30.18;33.26;99612.81;6070043;23;20173;-90
2022/09/06 08:43:59;;;;;;;2.28;0.93;;;;;;;29.97;33.22;99608.25;6044315;23;20172;-90
2022/09/06 08:47:07;;;;;;;2.03;0.75;;;;;;;30.06;34.09;99606.28;6044411;23;20176;-90
2022/09/06 08:49:51;;;;;;;;;;;;;;;;;;;;;
2022/09/06 08:52:41;;;;;;;3.38;0.82;;;;;;;29.74;33.50;99594.88;6064514;23;20240;-90
2022/09/06 08:55:25;;;;;;;2.30;1.00;;;;;;;29.72;34.26;99585.28;6069927;23;20184;-90
2022/09/06 08:58:26;;;;;;;3.05;0.68;;;;;;;29.57;33.58;99588.06;6044158;23;20157;-89
2022/09/06 09:01:14;;;;;;;2.25;0.80;;;;;;;29.20;33.34;99590.91;6006411;23;20158;-89
2022/09/06 09:03:42;;;;;;;1.75;1.00;;;;;;;29.09;33.23;99575.16;6069540;23;20176;-90
2022/09/06 09:06:09;;;;;;;2.53;0.90;;;;;;;28.86;33.63;99580.69;6069431;23;20145;-89
2022/09/06 09:08:51;;;;;;;1.58;0.80;;;;;;;29.17;33.08;99575.06;6069425;23;20220;-90
2022/09/06 09:11:25;;;;;;;2.30;1.40;;;;;;;29.36;33.69;99569.09;6044175;23;20154;-91
2022/09/06 09:14:02;;;;;;;3.30;1.02;;;;;;;29.67;32.93;99561.56;6069771;23;20224;-90
2022/09/06 09:16:35;;;;;;;1.73;0.73;;;;;;;29.94;31.88;99568.09;6069142;23;20149;-91
2022/09/06 09:19:38;;;;;;;;;;;;;;;;;;;;;
2022/09/06 09:22:04;;;;;;;5.40;1.48;;;;;;;30.12;30.33;99554.09;6057094;23;20252;-90
2022/09/06 09:24:31;;;;;;;3.15;0.95;;;;;;;30.31;31.42;99559.69;6069682;23;20200;-89
2022/09/06 09:27:03;;;;;;;2.80;1.00;;;;;;;29.89;31.40;99558.88;6068947;23;20154;-90
2022/09/06 09:29:38;;;;;;;1.58;0.70;;;;;;;30.14;32.80;99546.63;6044211;23;20163;-90
2022/09/06 09:32:04;;;;;;;2.88;1.05;;;;;;;30.67;31.45;99553.28;6044776;23;20149;-90
2022/09/06 09:35:05;;;;;;;;;;;;;;;;;;;;;
2022/09/06 09:38:03;;;;;;;;;;;;;;;;;;;;;
2022/09/06 09:40:34;;;;;;;2.80;1.15;;;;;;;31.17;30.59;99552.09;6069521;23;20217;-91
2022/09/06 09:43:18;;;;;;;2.47;1.13;;;;;;;31.37;29.93;99544.88;6043783;23;20153;-89
2022/09/06 09:45:44;;;;;;;2.00;1.10;;;;;;;31.51;30.75;99536.63;6068849;23;20149;-90
2022/09/06 09:48:52;;;;;;;1.92;0.80;;;;;;;31.69;29.91;99537.88;6043667;23;20153;-90
2022/09/06 09:51:24;;;;;;;2.50;0.98;;;;;;;31.72;29.63;99530.19;6026951;23;20160;-89
2022/09/06 09:54:00;;;;;;;1.55;0.80;;;;;;;31.67;29.31;99535.41;6068599;23;20606;-89
2022/09/06 09:56:36;;;;;;;4.70;1.25;;;;;;;31.89;28.71;99526.03;6043370;23;20599;-90
2022/09/06 09:59:50;;;;;;;2.13;0.77;;;;;;;31.87;29.51;99521.84;6043593;23;20496;-90
2022/09/06 10:02:39;;;;;;;2.55;0.88;;;;;;;31.89;29.39;99520.59;6021702;23;20223;-89
2022/09/06 10:05:22;;;;;;;2.00;0.80;;;;;;;31.80;28.61;99519.16;6068930;23;20457;-90
2022/09/06 10:07:50;;;;;;;1.70;0.73;;;;;;;31.78;28.95;99510.41;6043571;23;20157;-89
2022/09/06 10:10:35;;;;;;;4.10;0.95;;;;;;;32.15;28.94;99507.06;6068565;23;20160;-89
2022/09/06 10:13:11;;;;;;;1.15;0.63;;;;;;;32.08;29.14;99506.25;6043473;23;20163;-90
2022/09/06 10:15:39;;;;;;;2.35;0.93;;;;;;;32.26;28.70;99512.94;6069127;23;20601;-90
2022/09/06 10:18:31;;;;;;;1.95;0.80;;;;;;;32.57;28.49;99500.38;6068546;23;20157;-90
2022/09/06 10:21:06;;;;;;;1.35;0.77;;;;;;;32.56;28.86;99497.84;6068700;23;20149;-88
2022/09/06 10:24:08;;;;;;;2.72;0.73;;;;;;;32.69;28.67;99497.81;6069037;23;20149;-90
2022/09/06 10:26:42;;;;;;;3.95;1.20;;;;;;;32.72;28.66;99492.81;6043335;23;20156;-89
2022/09/06 10:29:20;;;;;;;2.28;0.68;;;;;;;32.84;28.61;99486.72;6068692;23;20152;-90
2022/09/06 10:32:29;;;;;;;1.30;0.68;;;;;;;32.73;28.85;99488.22;6068730;23;20152;-90
2022/09/06 10:35:27;;;;;;;;;;;;;;;;;;;;;
2022/09/06 10:38:14;;;;;;;1.40;0.70;;;;;;;33.08;29.03;99475.97;6069246;23;20220;-90
2022/09/06 10:41:10;;;;;;;2.25;1.00;;;;;;;32.97;29.52;99476.59;6068748;23;20149;-91
2022/09/06 10:44:00;;;;;;;1.63;0.70;;;;;;;32.37;29.74;99472.38;6068589;23;20209;-90
2022/09/06 10:46:31;;;;;;;2.85;0.75;;;;;;;32.55;30.13;99474.47;6044616;23;20153;-90
2022/09/06 10:48:57;;;;;;;3.63;0.88;;;;;;;32.83;28.88;99466.03;6043607;23;20149;-89
2022/09/06 10:51:32;;;;;;;3.38;1.13;;;;;;;32.92;29.69;99460.13;6043301;23;20171;-90
2022/09/06 10:54:05;;;;;;;1.67;0.80;;;;;;;32.78;29.59;99463.97;6069021;23;20179;-90
2022/09/06 10:56:57;;;;;;;2.03;0.90;;;;;;;32.88;28.90;99458.91;6043132;23;20165;-89
2022/09/06 10:59:34;;;;;;;2.40;0.88;;;;;;;32.38;29.97;99459.66;6068606;23;20582;-90
2022/09/06 11:02:07;;;;;;;1.15;0.70;;;;;;;32.42;29.41;99460.88;6068597;23;20133;-89
2022/09/06 11:04:38;;;;;;;1.88;0.90;;;;;;;32.76;29.42;99444.31;6068498;23;20134;-89
2022/09/06 11:07:17;;;;;;;1.88;0.95;;;;;;;33.05;28.67;99449.22;6068848;23;20153;-89
2022/09/06 11:10:03;;;;;;;1.23;0.70;;;;;;;33.26;29.43;99450.75;6043923;23;20460;-91
2022/09/06 11:12:50;;;;;;;1.40;0.77;;;;;;;33.63;28.08;99439.03;6068637;23;20549;-89
2022/09/06 11:15:22;;;;;;;0.70;0.40;;;;;;;33.75;27.91;99445.41;6068084;23;20177;-89
2022/09/06 11:18:06;;;;;;;2.80;0.93;;;;;;;33.78;27.86;99444.16;6043196;23;20164;-89
2022/09/06 11:20:41;;;;;;;1.92;0.82;;;;;;;33.85;27.40;99439.47;6068811;23;20141;-89
2022/09/06 11:23:25;;;;;;;2.38;0.73;;;;;;;33.51;28.20;99429.06;6043207;23;20552;-91
2022/09/06 11:26:06;;;;;;;1.95;0.60;;;;;;;33.71;28.59;99427.03;6068162;23;20212;-90
2022/09/06 11:28:42;;;;;;;1.65;0.90;;;;;;;33.46;27.57;99435.16;6068129;23;20141;-89
2022/09/06 11:31:12;;;;;;;1.63;0.80;;;;;;;33.35;27.97;99428.56;6043048;23;20596;-89
2022/09/06 11:33:40;;;;;;;1.25;0.50;;;;;;;32.85;28.57;99439.47;6068056;23;20149;-90
2022/09/06 11:36:34;;;;;;;2.03;0.82;;;;;;;33.05;28.07;99432.91;6068254;23;20173;-88
2022/09/06 11:39:10;;;;;;;1.88;0.80;;;;;;;33.28;28.25;99435.09;6042979;23;20169;-90
2022/09/06 11:41:50;;;;;;;;;;;;;;;;;;;;;
2022/09/06 11:44:51;;;;;;;2.92;1.10;;;;;;;33.67;27.54;99410.34;6068752;23;20230;-89
2022/09/06 11:47:38;;;;;;;3.22;1.13;;;;;;;33.93;27.07;99410.13;6070182;23;20220;-90
2022/09/06 11:50:26;;;;;;;1.70;0.82;;;;;;;33.98;26.69;99402.13;6045119;23;20157;-90
2022/09/06 11:53:16;;;;;;;2.00;1.00;;;;;;;33.90;28.04;99407.00;6070591;23;20173;-89
2022/09/06 11:55:48;;;;;;;2.90;0.88;;;;;;;33.84;27.28;99403.28;6069648;23;20181;-89
2022/09/06 11:58:17;;;;;;;1.92;0.70;;;;;;;34.04;26.91;99403.09;6070439;23;20169;-89
2022/09/06 12:01:11;;;;;;;2.00;0.52;;;;;;;34.07;26.40;99402.66;6044605;23;20161;-90
2022/09/06 12:03:52;;;;;;;1.40;0.80;;;;;;;33.86;27.02;99389.44;6044553;23;20157;-90
2022/09/06 12:06:26;;;;;;;1.40;0.43;;;;;;;34.37;26.58;99389.16;6044549;23;20153;-90
2022/09/06 12:08:54;;;;;;;1.45;0.63;;;;;;;34.43;26.54;99388.25;6070340;23;20511;-89
2022/09/06 12:11:34;;;;;;;2.25;0.95;;;;;;;34.62;26.18;99378.19;6044390;23;20157;-89
2022/09/06 12:14:05;;;;;;;2.50;0.60;;;;;;;34.85;25.06;99381.88;6069831;23;20157;-89
2022/09/06 12:16:56;;;;;;;1.83;0.68;;;;;;;34.63;25.17;99377.97;6069599;23;20150;-90
2022/09/06 12:19:42;;;;;;;1.30;0.60;;;;;;;34.71;25.09;99368.63;6044450;23;20169;-89
2022/09/06 12:22:26;;;;;;;7.18;0.80;;;;;;;34.46;25.28;99368.75;6070553;23;20664;-88
2022/09/06 12:25:01;;;;;;;1.95;0.60;;;;;;;34.03;26.25;99360.63;6069875;23;20173;-88
2022/09/06 12:27:36;;;;;;;0.90;0.52;;;;;;;33.70;26.53;99358.22;6070208;23;20171;-88
2022/09/06 12:30:10;;;;;;;1.25;0.60;;;;;;;33.78;26.42;99354.41;6044350;23;20153;-89
2022/09/06 12:32:45;;;;;;;1.42;0.70;;;;;;;34.04;26.30;99351.41;6069483;23;20137;-88
2022/09/06 12:35:15;;;;;;;1.73;0.80;;;;;;;33.89;25.54;99353.66;6070018;23;20227;-89